This is the latest recevied weather packets stored in our database for station/object EC2UT-13. If no packets are shown the sender has not sent any weather packets the latest 10 day(s).
| Time | Temp. | Humidity | Pressure | Rain* | Wind** | Luminosity | Snow |
|---|---|---|---|---|---|---|---|
| 1777846218 | 15° C | 73% | 1014.2 hPa | 0 mm | - | - | - |
| 1777844417 | 15° C | 73% | 1014 hPa | 0 mm | - | - | - |
| 1777842618 | 15° C | 73% | 1013.9 hPa | 1.27 mm | - | - | - |
| 1777841417 | 15.56° C | 72% | 1014.1 hPa | 1.52 mm | - | - | - |
| 1777840237 | 15.56° C | 71% | 1013.9 hPa | 1.27 mm | - | - | - |
| 1777828817 | 16.11° C | 65% | 1012.3 hPa | 0 mm | - | - | - |
| 1777824637 | 16.67° C | 66% | 1013.3 hPa | 0.25 mm | - | - | - |
| 1777821016 | 16.67° C | 69% | 1013.2 hPa | 0 mm | - | - | - |
| 1777820416 | 16.11° C | 69% | 1013.2 hPa | 0 mm | - | - | - |
| 1777819817 | 16.11° C | 70% | 1013.5 hPa | 0 mm | - | - | - |
| 1777817416 | 15.56° C | 72% | 1014.1 hPa | 3.81 mm | - | - | - |
| 1777815616 | 15.56° C | 72% | 1013.9 hPa | 14.48 mm | - | - | - |
| 1777812016 | 17.22° C | 66% | 1014.3 hPa | 2.03 mm | - | - | - |
| 1777806018 | 17.22° C | 63% | 1015.3 hPa | 0 mm | - | - | - |
| 1777803618 | 16.11° C | 65% | 1016.1 hPa | 0 mm | - | - | - |
| 1777802418 | 16.11° C | 69% | 1016 hPa | 0 mm | - | - | - |
| 1777797638 | 15° C | 72% | 1015.7 hPa | 0.51 mm | - | - | - |
| 1777795818 | 15° C | 74% | 1016.2 hPa | 0 mm | - | - | - |
| 1777795218 | 15° C | 75% | 1016.3 hPa | 0 mm | - | - | - |
| 1777794618 | 15° C | 76% | 1016.3 hPa | 0 mm | - | - | - |
| 1777794018 | 15° C | 76% | 1016.2 hPa | 0 mm | - | - | - |
| 1777793418 | 14.44° C | 76% | 1016.1 hPa | 0 mm | - | - | - |
| 1777789239 | 14.44° C | 76% | 1016.1 hPa | 0.51 mm | - | - | - |
| 1777788618 | 14.44° C | 75% | 1016 hPa | 0.51 mm | - | - | - |
| 1777785618 | 14.44° C | 74% | 1016.1 hPa | 0 mm | - | - | - |
* Rain latest hour (hover to see other rain measurements)
** Current wind speed in m/s (hover to see current wind gust speed)